sensor_id;sensor_type;location;lat;lon;timestamp;pressure;altitude;pressure_sealevel;temperature;humidity
3260;BME280;22469;48.150;14.004;2022-07-30T00:03:47;98032.47;;;22.96;74.03
3260;BME280;22469;48.150;14.004;2022-07-30T00:06:17;98033.56;;;22.93;74.03
3260;BME280;22469;48.150;14.004;2022-07-30T00:08:44;98035.47;;;22.91;74.73
3260;BME280;22469;48.150;14.004;2022-07-30T00:11:11;98036.28;;;22.91;74.31
3260;BME280;22469;48.150;14.004;2022-07-30T00:13:38;98027.50;;;22.92;73.90
3260;BME280;22469;48.150;14.004;2022-07-30T00:18:33;98025.50;;;22.85;74.22
3260;BME280;22469;48.150;14.004;2022-07-30T00:21:01;98026.56;;;22.82;74.20
3260;BME280;22469;48.150;14.004;2022-07-30T00:23:28;98018.00;;;22.80;74.52
3260;BME280;22469;48.150;14.004;2022-07-30T00:25:55;98018.00;;;22.80;74.61
3260;BME280;22469;48.150;14.004;2022-07-30T00:28:22;98018.72;;;22.82;74.68
3260;BME280;22469;48.150;14.004;2022-07-30T00:30:49;98024.53;;;22.86;74.20
3260;BME280;22469;48.150;14.004;2022-07-30T00:33:21;98022.47;;;22.68;73.77
3260;BME280;22469;48.150;14.004;2022-07-30T00:35:48;98013.31;;;22.63;74.51
3260;BME280;22469;48.150;14.004;2022-07-30T00:38:15;98017.72;;;22.62;75.07
3260;BME280;22469;48.150;14.004;2022-07-30T00:40:42;98013.22;;;22.64;74.74
3260;BME280;22469;48.150;14.004;2022-07-30T00:43:16;98016.91;;;22.62;74.79
3260;BME280;22469;48.150;14.004;2022-07-30T00:45:44;98020.59;;;22.59;74.74
3260;BME280;22469;48.150;14.004;2022-07-30T00:48:13;98020.22;;;22.64;74.67
3260;BME280;22469;48.150;14.004;2022-07-30T00:50:41;98014.28;;;22.62;75.20
3260;BME280;22469;48.150;14.004;2022-07-30T00:53:10;98014.28;;;22.62;75.12
3260;BME280;22469;48.150;14.004;2022-07-30T00:55:37;98013.31;;;22.63;74.92
3260;BME280;22469;48.150;14.004;2022-07-30T00:58:05;98013.22;;;22.64;74.97
3260;BME280;22469;48.150;14.004;2022-07-30T01:00:32;98011.66;;;22.62;75.41
3260;BME280;22469;48.150;14.004;2022-07-30T01:02:59;98013.22;;;22.64;74.91
3260;BME280;22469;48.150;14.004;2022-07-30T01:05:26;98009.53;;;22.67;75.13
3260;BME280;22469;48.150;14.004;2022-07-30T01:07:53;98010.69;;;22.63;75.39
3260;BME280;22469;48.150;14.004;2022-07-30T01:10:20;98009.94;;;22.51;75.43
3260;BME280;22469;48.150;14.004;2022-07-30T01:12:47;98017.19;;;22.47;76.10
3260;BME280;22469;48.150;14.004;2022-07-30T01:15:15;98004.84;;;22.50;75.92
3260;BME280;22469;48.150;14.004;2022-07-30T01:17:43;98006.47;;;22.51;75.69
3260;BME280;22469;48.150;14.004;2022-07-30T01:20:47;98009.44;;;22.57;75.53
3260;BME280;22469;48.150;14.004;2022-07-30T01:23:24;98001.94;;;22.53;75.62
3260;BME280;22469;48.150;14.004;2022-07-30T01:26:01;97999.22;;;22.54;75.52
3260;BME280;22469;48.150;14.004;2022-07-30T01:28:38;98005.03;;;22.58;75.51
3260;BME280;22469;48.150;14.004;2022-07-30T01:31:09;98007.41;;;22.61;75.00
3260;BME280;22469;48.150;14.004;2022-07-30T01:33:39;97999.41;;;22.62;75.32
3260;BME280;22469;48.150;14.004;2022-07-30T01:36:12;98002.41;;;22.58;75.36
3260;BME280;22469;48.150;14.004;2022-07-30T01:38:45;98004.19;;;22.57;75.23
3260;BME280;22469;48.150;14.004;2022-07-30T01:41:15;97996.84;;;22.51;74.71
3260;BME280;22469;48.150;14.004;2022-07-30T01:43:44;98000.28;;;22.52;75.16
3260;BME280;22469;48.150;14.004;2022-07-30T01:46:14;97998.63;;;22.51;75.44
3260;BME280;22469;48.150;14.004;2022-07-30T01:48:42;98001.25;;;22.51;75.07
3260;BME280;22469;48.150;14.004;2022-07-30T01:51:12;97997.69;;;22.52;75.26
3260;BME280;22469;48.150;14.004;2022-07-30T01:53:40;97998.75;;;22.49;75.33
3260;BME280;22469;48.150;14.004;2022-07-30T01:56:10;97994.72;;;22.45;75.58
3260;BME280;22469;48.150;14.004;2022-07-30T01:58:42;97995.69;;;22.44;75.55
3260;BME280;22469;48.150;14.004;2022-07-30T02:01:12;97995.69;;;22.44;75.61
3260;BME280;22469;48.150;14.004;2022-07-30T02:03:41;97998.16;;;22.45;75.28
3260;BME280;22469;48.150;14.004;2022-07-30T02:06:22;97988.81;;;22.43;75.70
3260;BME280;22469;48.150;14.004;2022-07-30T02:08:55;97992.97;;;22.34;75.76
3260;BME280;22469;48.150;14.004;2022-07-30T02:11:24;97990.84;;;22.39;75.39
3260;BME280;22469;48.150;14.004;2022-07-30T02:14:29;97985.34;;;22.42;75.51
3260;BME280;22469;48.150;14.004;2022-07-30T02:17:04;97990.00;;;22.39;75.48
3260;BME280;22469;48.150;14.004;2022-07-30T02:19:50;97993.56;;;22.38;75.29
3260;BME280;22469;48.150;14.004;2022-07-30T02:22:21;97994.19;;;22.30;75.55
3260;BME280;22469;48.150;14.004;2022-07-30T02:24:51;97991.09;;;22.25;76.48
3260;BME280;22469;48.150;14.004;2022-07-30T02:27:25;97991.09;;;22.36;75.35
3260;BME280;22469;48.150;14.004;2022-07-30T02:29:56;97996.66;;;22.32;75.79
3260;BME280;22469;48.150;14.004;2022-07-30T02:32:26;97997.63;;;22.31;75.57
3260;BME280;22469;48.150;14.004;2022-07-30T02:35:00;97992.06;;;22.01;76.58
3260;BME280;22469;48.150;14.004;2022-07-30T02:37:37;97995.66;;;21.89;77.72
3260;BME280;22469;48.150;14.004;2022-07-30T02:40:13;97991.03;;;21.93;77.32
3260;BME280;22469;48.150;14.004;2022-07-30T02:42:45;97986.16;;;21.77;77.89
3260;BME280;22469;48.150;14.004;2022-07-30T02:45:15;97992.94;;;21.68;78.70
3260;BME280;22469;48.150;14.004;2022-07-30T02:47:53;97984.28;;;21.79;78.76
3260;BME280;22469;48.150;14.004;2022-07-30T02:50:35;97986.03;;;21.90;77.54
3260;BME280;22469;48.150;14.004;2022-07-30T02:53:04;97989.38;;;21.92;77.95
3260;BME280;22469;48.150;14.004;2022-07-30T02:55:35;97991.13;;;22.03;77.19
3260;BME280;22469;48.150;14.004;2022-07-30T02:58:06;97984.47;;;22.10;76.99
3260;BME280;22469;48.150;14.004;2022-07-30T03:00:34;97984.84;;;22.05;76.53
3260;BME280;22469;48.150;14.004;2022-07-30T03:03:05;97989.22;;;22.05;76.51
3260;BME280;22469;48.150;14.004;2022-07-30T03:05:33;97984.56;;;22.08;76.39
3260;BME280;22469;48.150;14.004;2022-07-30T03:08:02;97990.16;;;22.04;76.63
3260;BME280;22469;48.150;14.004;2022-07-30T03:10:30;97976.88;;;22.07;75.82
3260;BME280;22469;48.150;14.004;2022-07-30T03:12:59;97985.53;;;22.07;75.79
3260;BME280;22469;48.150;14.004;2022-07-30T03:15:29;97976.91;;;21.95;75.84
3260;BME280;22469;48.150;14.004;2022-07-30T03:18:06;97980.91;;;21.99;76.48
3260;BME280;22469;48.150;14.004;2022-07-30T03:20:36;97974.03;;;21.98;76.34
3260;BME280;22469;48.150;14.004;2022-07-30T03:23:05;97982.59;;;21.89;76.30
3260;BME280;22469;48.150;14.004;2022-07-30T03:25:33;97973.94;;;21.89;76.49
3260;BME280;22469;48.150;14.004;2022-07-30T03:28:02;97982.94;;;21.96;76.28
3260;BME280;22469;48.150;14.004;2022-07-30T03:30:32;97978.53;;;21.96;76.27
3260;BME280;22469;48.150;14.004;2022-07-30T03:33:00;97978.47;;;21.75;76.52
3260;BME280;22469;48.150;14.004;2022-07-30T03:35:29;97983.44;;;21.79;77.39
3260;BME280;22469;48.150;14.004;2022-07-30T03:37:58;97988.78;;;21.77;77.27
3260;BME280;22469;48.150;14.004;2022-07-30T03:40:26;97993.31;;;21.75;76.62
3260;BME280;22469;48.150;14.004;2022-07-30T03:42:55;97990.69;;;21.75;77.51
3260;BME280;22469;48.150;14.004;2022-07-30T03:45:22;97983.53;;;21.77;77.51
3260;BME280;22469;48.150;14.004;2022-07-30T03:47:50;97984.28;;;21.79;77.25
3260;BME280;22469;48.150;14.004;2022-07-30T03:50:18;97988.44;;;21.82;77.30
3260;BME280;22469;48.150;14.004;2022-07-30T03:52:45;97993.16;;;21.88;76.67
3260;BME280;22469;48.150;14.004;2022-07-30T03:55:13;97993.63;;;21.93;76.81
3260;BME280;22469;48.150;14.004;2022-07-30T03:57:40;97995.06;;;21.86;76.68
3260;BME280;22469;48.150;14.004;2022-07-30T04:00:13;97992.22;;;21.89;76.67
3260;BME280;22469;48.150;14.004;2022-07-30T04:02:45;98002.53;;;21.57;76.98
3260;BME280;22469;48.150;14.004;2022-07-30T04:05:13;98001.97;;;21.64;77.02
3260;BME280;22469;48.150;14.004;2022-07-30T04:07:41;98008.25;;;21.73;76.95
3260;BME280;22469;48.150;14.004;2022-07-30T04:10:11;98003.16;;;21.71;76.78
3260;BME280;22469;48.150;14.004;2022-07-30T04:12:39;97999.34;;;21.75;76.51
3260;BME280;22469;48.150;14.004;2022-07-30T04:15:07;98003.97;;;21.72;76.28
3260;BME280;22469;48.150;14.004;2022-07-30T04:17:59;98008.59;;;21.68;76.21
3260;BME280;22469;48.150;14.004;2022-07-30T04:20:48;98004.09;;;21.59;76.25
3260;BME280;22469;48.150;14.004;2022-07-30T04:23:18;98013.09;;;21.44;75.63
3260;BME280;22469;48.150;14.004;2022-07-30T04:25:45;98012.84;;;21.47;76.26
3260;BME280;22469;48.150;14.004;2022-07-30T04:28:13;98015.59;;;21.45;76.27
3260;BME280;22469;48.150;14.004;2022-07-30T04:30:40;98009.41;;;21.46;76.56
3260;BME280;22469;48.150;14.004;2022-07-30T04:33:07;98020.81;;;21.45;76.31
3260;BME280;22469;48.150;14.004;2022-07-30T04:35:35;98006.69;;;21.48;75.81
3260;BME280;22469;48.150;14.004;2022-07-30T04:38:18;98018.78;;;21.49;76.11
3260;BME280;22469;48.150;14.004;2022-07-30T04:40:46;98012.63;;;21.50;75.71
3260;BME280;22469;48.150;14.004;2022-07-30T04:43:14;98018.69;;;21.50;76.31
3260;BME280;22469;48.150;14.004;2022-07-30T04:45:41;98014.13;;;21.30;75.66
3260;BME280;22469;48.150;14.004;2022-07-30T04:48:08;98027.34;;;21.16;76.42
3260;BME280;22469;48.150;14.004;2022-07-30T04:50:40;98014.06;;;21.08;77.15
3260;BME280;22469;48.150;14.004;2022-07-30T04:53:08;98013.97;;;21.20;77.22
3260;BME280;22469;48.150;14.004;2022-07-30T04:55:40;98023.72;;;21.29;76.91
3260;BME280;22469;48.150;14.004;2022-07-30T04:58:09;98021.94;;;21.30;76.13
3260;BME280;22469;48.150;14.004;2022-07-30T05:00:40;98018.47;;;21.18;76.83
3260;BME280;22469;48.150;14.004;2022-07-30T05:03:10;98016.59;;;21.32;76.53
3260;BME280;22469;48.150;14.004;2022-07-30T05:05:39;98008.41;;;21.25;76.17
3260;BME280;22469;48.150;14.004;2022-07-30T05:08:07;98009.59;;;21.32;76.58
3260;BME280;22469;48.150;14.004;2022-07-30T05:10:36;98011.25;;;21.33;76.71
3260;BME280;22469;48.150;14.004;2022-07-30T05:13:03;98012.34;;;21.30;77.04
3260;BME280;22469;48.150;14.004;2022-07-30T05:15:38;98014.91;;;21.19;76.51
3260;BME280;22469;48.150;14.004;2022-07-30T05:18:06;98015.75;;;21.20;77.02
3260;BME280;22469;48.150;14.004;2022-07-30T05:20:34;98010.78;;;21.28;77.56
3260;BME280;22469;48.150;14.004;2022-07-30T05:23:01;98015.38;;;21.13;78.01
3260;BME280;22469;48.150;14.004;2022-07-30T05:25:29;98013.59;;;21.14;78.11
3260;BME280;22469;48.150;14.004;2022-07-30T05:27:56;98011.16;;;21.23;77.25
3260;BME280;22469;48.150;14.004;2022-07-30T05:30:24;98011.47;;;21.19;76.92
3260;BME280;22469;48.150;14.004;2022-07-30T05:32:53;98015.50;;;21.12;78.03
3260;BME280;22469;48.150;14.004;2022-07-30T05:35:21;98011.47;;;21.19;77.64
3260;BME280;22469;48.150;14.004;2022-07-30T05:37:49;98016.47;;;21.33;76.53
3260;BME280;22469;48.150;14.004;2022-07-30T05:40:16;98015.44;;;21.36;76.96
3260;BME280;22469;48.150;14.004;2022-07-30T05:42:43;98017.97;;;21.37;77.18
3260;BME280;22469;48.150;14.004;2022-07-30T05:45:10;98014.75;;;21.45;76.59
3260;BME280;22469;48.150;14.004;2022-07-30T05:47:37;98021.16;;;21.41;76.55
3260;BME280;22469;48.150;14.004;2022-07-30T05:50:05;98012.50;;;21.51;76.37
3260;BME280;22469;48.150;14.004;2022-07-30T05:52:32;98011.91;;;21.59;76.72
3260;BME280;22469;48.150;14.004;2022-07-30T05:54:59;98013.34;;;21.63;76.70
3260;BME280;22469;48.150;14.004;2022-07-30T05:57:26;98022.50;;;21.69;77.00
3260;BME280;22469;48.150;14.004;2022-07-30T05:59:53;98022.94;;;21.74;76.12
3260;BME280;22469;48.150;14.004;2022-07-30T06:02:21;98027.22;;;21.64;76.61
3260;BME280;22469;48.150;14.004;2022-07-30T06:04:50;98025.19;;;21.67;76.92
3260;BME280;22469;48.150;14.004;2022-07-30T06:07:18;98030.56;;;21.66;76.69
3260;BME280;22469;48.150;14.004;2022-07-30T06:09:45;98031.38;;;21.66;76.86
3260;BME280;22469;48.150;14.004;2022-07-30T06:12:13;98043.00;;;21.73;76.44
3260;BME280;22469;48.150;14.004;2022-07-30T06:14:40;98041.59;;;21.81;76.65
3260;BME280;22469;48.150;14.004;2022-07-30T06:17:07;98034.72;;;21.80;76.56
3260;BME280;22469;48.150;14.004;2022-07-30T06:19:34;98045.75;;;21.83;76.24
3260;BME280;22469;48.150;14.004;2022-07-30T06:22:01;98042.66;;;21.89;76.37
3260;BME280;22469;48.150;14.004;2022-07-30T06:24:33;98040.41;;;21.96;76.33
3260;BME280;22469;48.150;14.004;2022-07-30T06:27:00;98043.84;;;21.96;76.57
3260;BME280;22469;48.150;14.004;2022-07-30T06:29:28;98038.16;;;22.03;76.35
3260;BME280;22469;48.150;14.004;2022-07-30T06:31:55;98043.97;;;22.06;76.00
3260;BME280;22469;48.150;14.004;2022-07-30T06:34:22;98044.41;;;22.11;75.63
3260;BME280;22469;48.150;14.004;2022-07-30T06:36:49;98044.41;;;22.11;75.82
3260;BME280;22469;48.150;14.004;2022-07-30T06:39:17;98051.13;;;22.15;75.27
3260;BME280;22469;48.150;14.004;2022-07-30T06:42:04;98037.69;;;22.20;75.88
3260;BME280;22469;48.150;14.004;2022-07-30T06:44:31;98047.41;;;22.29;74.79
3260;BME280;22469;48.150;14.004;2022-07-30T06:46:58;98047.03;;;22.34;74.92
3260;BME280;22469;48.150;14.004;2022-07-30T06:49:36;98052.97;;;22.36;74.41
3260;BME280;22469;48.150;14.004;2022-07-30T06:52:04;98052.72;;;22.39;74.92
3260;BME280;22469;48.150;14.004;2022-07-30T06:54:31;98054.25;;;22.41;74.39
3260;BME280;22469;48.150;14.004;2022-07-30T06:56:58;98048.66;;;22.46;74.38
3260;BME280;22469;48.150;14.004;2022-07-30T06:59:27;98046.03;;;22.46;73.90
3260;BME280;22469;48.150;14.004;2022-07-30T07:01:54;98050.78;;;22.52;74.31
3260;BME280;22469;48.150;14.004;2022-07-30T07:04:21;98056.50;;;22.57;73.56
3260;BME280;22469;48.150;14.004;2022-07-30T07:06:48;98054.31;;;22.62;73.54
3260;BME280;22469;48.150;14.004;2022-07-30T07:09:15;98051.47;;;22.65;73.36
3260;BME280;22469;48.150;14.004;2022-07-30T07:11:42;98045.84;;;22.70;73.57
3260;BME280;22469;48.150;14.004;2022-07-30T07:14:09;98056.94;;;22.74;73.24
3260;BME280;22469;48.150;14.004;2022-07-30T07:16:36;98049.66;;;22.77;73.48
3260;BME280;22469;48.150;14.004;2022-07-30T07:19:04;98035.63;;;22.78;73.02
3260;BME280;22469;48.150;14.004;2022-07-30T07:21:31;98044.03;;;22.82;72.82
3260;BME280;22469;48.150;14.004;2022-07-30T07:23:58;98044.88;;;22.82;73.09
3260;BME280;22469;48.150;14.004;2022-07-30T07:26:30;98052.34;;;22.87;72.76
3260;BME280;22469;48.150;14.004;2022-07-30T07:28:57;98051.16;;;22.91;72.77
3260;BME280;22469;48.150;14.004;2022-07-30T07:31:30;98049.16;;;22.94;73.04
3260;BME280;22469;48.150;14.004;2022-07-30T07:34:17;98044.50;;;22.98;72.84
3260;BME280;22469;48.150;14.004;2022-07-30T07:36:44;98044.00;;;23.04;72.88
3260;BME280;22469;48.150;14.004;2022-07-30T07:39:11;98047.69;;;23.02;73.41
3260;BME280;22469;48.150;14.004;2022-07-30T07:41:40;98042.88;;;23.07;73.26
3260;BME280;22469;48.150;14.004;2022-07-30T07:44:14;98036.75;;;23.17;73.14
3260;BME280;22469;48.150;14.004;2022-07-30T07:46:41;98039.13;;;23.21;72.52
3260;BME280;22469;48.150;14.004;2022-07-30T07:49:09;98042.47;;;23.23;71.71
3260;BME280;22469;48.150;14.004;2022-07-30T07:51:36;98042.06;;;23.27;71.67
3260;BME280;22469;48.150;14.004;2022-07-30T07:54:14;98047.69;;;23.23;71.10
3260;BME280;22469;48.150;14.004;2022-07-30T07:56:50;98040.50;;;23.04;70.61
3260;BME280;22469;48.150;14.004;2022-07-30T07:59:18;98044.13;;;22.91;71.04
3260;BME280;22469;48.150;14.004;2022-07-30T08:01:45;98040.66;;;22.59;71.80
3260;BME280;22469;48.150;14.004;2022-07-30T08:04:16;98044.84;;;22.61;70.79
3260;BME280;22469;48.150;14.004;2022-07-30T08:06:43;98046.47;;;22.74;71.26
3260;BME280;22469;48.150;14.004;2022-07-30T08:09:10;98046.03;;;22.57;71.06
3260;BME280;22469;48.150;14.004;2022-07-30T08:11:37;98045.28;;;22.23;71.94
3260;BME280;22469;48.150;14.004;2022-07-30T08:14:04;98052.78;;;22.16;73.35
3260;BME280;22469;48.150;14.004;2022-07-30T08:16:31;98047.16;;;22.43;72.55
3260;BME280;22469;48.150;14.004;2022-07-30T08:18:59;98046.69;;;22.27;71.58
3260;BME280;22469;48.150;14.004;2022-07-30T08:21:26;98049.41;;;22.26;72.55
3260;BME280;22469;48.150;14.004;2022-07-30T08:23:53;98045.31;;;22.55;71.90
3260;BME280;22469;48.150;14.004;2022-07-30T08:26:20;98044.22;;;22.69;71.15
3260;BME280;22469;48.150;14.004;2022-07-30T08:28:47;98052.88;;;22.69;70.51
3260;BME280;22469;48.150;14.004;2022-07-30T08:31:14;98056.41;;;22.47;71.00
3260;BME280;22469;48.150;14.004;2022-07-30T08:33:41;98052.97;;;22.36;71.46
3260;BME280;22469;48.150;14.004;2022-07-30T08:36:09;98057.91;;;22.61;71.17
3260;BME280;22469;48.150;14.004;2022-07-30T08:38:37;98054.66;;;22.69;70.89
3260;BME280;22469;48.150;14.004;2022-07-30T08:41:04;98059.97;;;22.35;71.54
3260;BME280;22469;48.150;14.004;2022-07-30T08:43:34;98061.94;;;22.65;70.58
3260;BME280;22469;48.150;14.004;2022-07-30T08:46:04;98061.47;;;22.60;70.04
3260;BME280;22469;48.150;14.004;2022-07-30T08:48:36;98069.00;;;22.42;69.86
3260;BME280;22469;48.150;14.004;2022-07-30T08:51:03;98066.63;;;22.51;68.83
3260;BME280;22469;48.150;14.004;2022-07-30T08:53:32;98064.63;;;22.43;68.35
3260;BME280;22469;48.150;14.004;2022-07-30T08:56:01;98061.44;;;22.71;68.29
3260;BME280;22469;48.150;14.004;2022-07-30T08:58:31;98059.22;;;22.99;67.50
3260;BME280;22469;48.150;14.004;2022-07-30T09:01:01;98060.28;;;23.29;68.25
3260;BME280;22469;48.150;14.004;2022-07-30T09:03:30;98053.41;;;23.37;65.37
3260;BME280;22469;48.150;14.004;2022-07-30T09:06:00;98050.03;;;23.68;64.82
3260;BME280;22469;48.150;14.004;2022-07-30T09:08:28;98048.16;;;23.79;63.79
3260;BME280;22469;48.150;14.004;2022-07-30T09:10:55;98050.81;;;23.89;63.42
3260;BME280;22469;48.150;14.004;2022-07-30T09:13:26;98046.13;;;23.83;62.91
3260;BME280;22469;48.150;14.004;2022-07-30T09:15:54;98040.75;;;23.63;61.86
3260;BME280;22469;48.150;14.004;2022-07-30T09:18:38;98045.78;;;23.46;61.64
3260;BME280;22469;48.150;14.004;2022-07-30T09:26:29;98044.06;;;23.65;60.75
3260;BME280;22469;48.150;14.004;2022-07-30T09:29:19;98045.59;;;23.89;59.69
3260;BME280;22469;48.150;14.004;2022-07-30T09:31:56;98054.56;;;23.45;59.77
3260;BME280;22469;48.150;14.004;2022-07-30T09:34:33;98051.84;;;23.46;60.96
3260;BME280;22469;48.150;14.004;2022-07-30T09:37:24;98044.28;;;23.53;61.00
3260;BME280;22469;48.150;14.004;2022-07-30T09:39:54;98043.06;;;23.78;61.63
3260;BME280;22469;48.150;14.004;2022-07-30T09:42:26;98034.19;;;24.09;59.96
3260;BME280;22469;48.150;14.004;2022-07-30T09:45:11;98026.53;;;24.37;59.72
3260;BME280;22469;48.150;14.004;2022-07-30T09:47:44;98025.50;;;24.59;57.48
3260;BME280;22469;48.150;14.004;2022-07-30T09:50:15;98019.41;;;24.68;56.82
3260;BME280;22469;48.150;14.004;2022-07-30T09:53:08;98019.16;;;24.91;56.75
3260;BME280;22469;48.150;14.004;2022-07-30T09:55:37;98012.09;;;24.91;57.70
3260;BME280;22469;48.150;14.004;2022-07-30T09:58:09;98015.13;;;25.25;56.47
3260;BME280;22469;48.150;14.004;2022-07-30T10:00:42;98013.47;;;25.24;56.72
3260;BME280;22469;48.150;14.004;2022-07-30T10:03:20;98010.31;;;25.11;54.19
3260;BME280;22469;48.150;14.004;2022-07-30T10:06:03;98017.41;;;25.58;54.67
3260;BME280;22469;48.150;14.004;2022-07-30T10:11:16;98005.78;;;25.97;54.35
3260;BME280;22469;48.150;14.004;2022-07-30T10:13:53;98011.13;;;25.78;54.79
3260;BME280;22469;48.150;14.004;2022-07-30T10:16:23;98007.59;;;25.97;54.29
3260;BME280;22469;48.150;14.004;2022-07-30T10:18:52;97999.09;;;26.31;52.39
3260;BME280;22469;48.150;14.004;2022-07-30T10:21:24;97997.06;;;26.42;53.51
3260;BME280;22469;48.150;14.004;2022-07-30T10:23:52;97994.91;;;26.10;52.25
3260;BME280;22469;48.150;14.004;2022-07-30T10:26:21;97993.38;;;26.35;53.83
3260;BME280;22469;48.150;14.004;2022-07-30T10:28:49;97982.38;;;26.50;52.14
3260;BME280;22469;48.150;14.004;2022-07-30T10:31:18;97976.78;;;26.53;51.36
3260;BME280;22469;48.150;14.004;2022-07-30T10:34:05;97985.81;;;26.86;52.13
3260;BME280;22469;48.150;14.004;2022-07-30T10:36:34;97978.25;;;27.09;50.83
3260;BME280;22469;48.150;14.004;2022-07-30T10:39:02;97980.84;;;26.83;50.35
3260;BME280;22469;48.150;14.004;2022-07-30T10:47:13;97967.75;;;26.91;51.00
3260;BME280;22469;48.150;14.004;2022-07-30T10:50:14;97967.50;;;27.02;50.78
3260;BME280;22469;48.150;14.004;2022-07-30T10:53:00;97973.22;;;27.15;50.77
3260;BME280;22469;48.150;14.004;2022-07-30T10:55:33;97959.81;;;27.09;49.20
3260;BME280;22469;48.150;14.004;2022-07-30T10:58:09;97967.34;;;27.22;49.16
3260;BME280;22469;48.150;14.004;2022-07-30T11:03:20;97967.75;;;26.73;49.70
3260;BME280;22469;48.150;14.004;2022-07-30T11:08:50;97955.31;;;27.53;48.64
3260;BME280;22469;48.150;14.004;2022-07-30T11:14:11;97962.59;;;27.07;48.05
3260;BME280;22469;48.150;14.004;2022-07-30T11:19:14;97945.50;;;27.72;50.30
3260;BME280;22469;48.150;14.004;2022-07-30T11:22:31;97952.88;;;27.60;48.26
3260;BME280;22469;48.150;14.004;2022-07-30T11:31:28;97953.00;;;27.24;50.40
3260;BME280;22469;48.150;14.004;2022-07-30T11:37:07;97952.69;;;27.01;50.43
3260;BME280;22469;48.150;14.004;2022-07-30T11:42:32;97956.66;;;26.61;51.84
3260;BME280;22469;48.150;14.004;2022-07-30T11:45:23;97960.09;;;26.44;52.79
3260;BME280;22469;48.150;14.004;2022-07-30T11:47:54;97970.88;;;26.05;53.53
3260;BME280;22469;48.150;14.004;2022-07-30T11:50:25;97983.84;;;25.79;52.79
3260;BME280;22469;48.150;14.004;2022-07-30T11:53:17;97980.69;;;25.85;54.63
3260;BME280;22469;48.150;14.004;2022-07-30T11:55:54;97983.50;;;26.47;52.90
3260;BME280;22469;48.150;14.004;2022-07-30T12:01:03;97989.97;;;25.23;56.04
3260;BME280;22469;48.150;14.004;2022-07-30T12:03:39;97987.78;;;25.09;59.08
3260;BME280;22469;48.150;14.004;2022-07-30T12:06:10;98006.84;;;25.01;62.80
3260;BME280;22469;48.150;14.004;2022-07-30T12:08:44;97998.97;;;25.11;60.44
3260;BME280;22469;48.150;14.004;2022-07-30T12:11:12;97994.56;;;25.11;59.18
3260;BME280;22469;48.150;14.004;2022-07-30T12:13:40;98003.69;;;24.88;60.37
3260;BME280;22469;48.150;14.004;2022-07-30T12:16:13;97992.91;;;24.91;61.36
3260;BME280;22469;48.150;14.004;2022-07-30T12:18:45;97997.28;;;25.39;61.81
3260;BME280;22469;48.150;14.004;2022-07-30T12:21:13;97995.91;;;25.72;60.94
3260;BME280;22469;48.150;14.004;2022-07-30T12:26:31;97976.28;;;26.49;56.29
3260;BME280;22469;48.150;14.004;2022-07-30T12:29:02;98002.13;;;26.72;54.35
3260;BME280;22469;48.150;14.004;2022-07-30T12:31:30;98023.50;;;26.51;51.57
3260;BME280;22469;48.150;14.004;2022-07-30T12:34:21;98029.22;;;24.95;55.48
3260;BME280;22469;48.150;14.004;2022-07-30T12:36:49;97999.75;;;24.14;56.31
3260;BME280;22469;48.150;14.004;2022-07-30T12:39:23;97998.16;;;23.61;57.84
3260;BME280;22469;48.150;14.004;2022-07-30T12:41:53;97998.97;;;23.31;58.48
3260;BME280;22469;48.150;14.004;2022-07-30T12:44:41;97991.31;;;23.39;60.47
3260;BME280;22469;48.150;14.004;2022-07-30T12:47:27;97985.94;;;23.41;58.82
3260;BME280;22469;48.150;14.004;2022-07-30T12:49:57;98004.72;;;23.46;62.21
3260;BME280;22469;48.150;14.004;2022-07-30T12:52:28;98002.00;;;23.57;64.05
3260;BME280;22469;48.150;14.004;2022-07-30T12:55:05;98018.16;;;23.62;64.98
3260;BME280;22469;48.150;14.004;2022-07-30T12:57:55;98036.34;;;23.85;63.71
3260;BME280;22469;48.150;14.004;2022-07-30T13:03:27;98013.06;;;24.42;65.35
3260;BME280;22469;48.150;14.004;2022-07-30T13:05:55;98020.38;;;24.57;63.34
3260;BME280;22469;48.150;14.004;2022-07-30T13:11:14;98002.72;;;24.98;60.30
3260;BME280;22469;48.150;14.004;2022-07-30T13:13:41;97989.75;;;25.16;59.10
3260;BME280;22469;48.150;14.004;2022-07-30T13:16:08;97985.00;;;25.29;61.61
3260;BME280;22469;48.150;14.004;2022-07-30T13:18:36;97994.09;;;25.45;61.53
3260;BME280;22469;48.150;14.004;2022-07-30T13:21:05;98006.50;;;25.52;61.67
3260;BME280;22469;48.150;14.004;2022-07-30T13:23:39;98032.38;;;25.47;61.01
3260;BME280;22469;48.150;14.004;2022-07-30T13:26:09;98114.91;;;25.25;61.53
3260;BME280;22469;48.150;14.004;2022-07-30T13:28:36;98132.88;;;23.69;57.63
3260;BME280;22469;48.150;14.004;2022-07-30T13:31:04;98064.94;;;23.25;56.64
3260;BME280;22469;48.150;14.004;2022-07-30T13:33:34;98036.19;;;22.82;58.25
3260;BME280;22469;48.150;14.004;2022-07-30T13:36:02;98018.63;;;22.40;60.45
3260;BME280;22469;48.150;14.004;2022-07-30T13:38:31;98007.28;;;22.19;63.42
3260;BME280;22469;48.150;14.004;2022-07-30T13:40:59;98009.19;;;22.17;63.76
3260;BME280;22469;48.150;14.004;2022-07-30T13:43:28;98001.56;;;22.14;65.19
3260;BME280;22469;48.150;14.004;2022-07-30T13:45:59;98003.34;;;22.13;66.97
3260;BME280;22469;48.150;14.004;2022-07-30T13:48:28;98001.47;;;22.15;67.64
3260;BME280;22469;48.150;14.004;2022-07-30T13:50:56;98000.38;;;22.18;69.03
3260;BME280;22469;48.150;14.004;2022-07-30T13:53:23;97996.47;;;22.23;68.65
3260;BME280;22469;48.150;14.004;2022-07-30T13:55:50;97999.88;;;22.35;69.06
3260;BME280;22469;48.150;14.004;2022-07-30T13:58:17;97996.28;;;22.47;68.27
3260;BME280;22469;48.150;14.004;2022-07-30T14:00:44;97998.72;;;22.60;69.44
3260;BME280;22469;48.150;14.004;2022-07-30T14:03:13;97997.59;;;22.74;70.34
3260;BME280;22469;48.150;14.004;2022-07-30T14:05:42;98001.56;;;22.89;70.13
3260;BME280;22469;48.150;14.004;2022-07-30T14:08:10;98011.16;;;23.00;70.95
3260;BME280;22469;48.150;14.004;2022-07-30T14:10:38;98030.63;;;23.07;71.77
3260;BME280;22469;48.150;14.004;2022-07-30T14:13:07;98046.22;;;23.09;72.22